createdAt,value
2018-01-16T00:00:25.877Z,7.59
2018-01-16T00:01:34.407Z,7.55
2018-01-16T00:02:43.206Z,7.54
2018-01-16T00:03:51.738Z,7.61
2018-01-16T00:05:00.539Z,7.56
2018-01-16T00:06:09.075Z,7.47
2018-01-16T00:07:18.225Z,7.55
2018-01-16T00:08:26.758Z,7.55
2018-01-16T00:09:35.555Z,7.51
2018-01-16T00:10:44.088Z,7.49
2018-01-16T00:11:53.158Z,7.56
2018-01-16T00:13:01.955Z,7.55
2018-01-16T00:14:11.016Z,7.58
2018-01-16T00:15:19.542Z,7.47
2018-01-16T00:16:28.334Z,7.37
2018-01-16T00:17:37.128Z,7.4
2018-01-16T00:18:45.659Z,7.37
2018-01-16T00:19:54.456Z,7.33
2018-01-16T00:21:03.778Z,7.33
2018-01-16T00:22:12.307Z,7.44
2018-01-16T00:23:21.102Z,7.37
2018-01-16T00:24:29.899Z,7.37
2018-01-16T00:25:38.689Z,7.45
2018-01-16T00:26:47.480Z,7.31
2018-01-16T00:27:56.009Z,7.31
2018-01-16T00:29:05.067Z,7.29
2018-01-16T00:30:13.596Z,7.33
2018-01-16T00:31:22.389Z,7.22
2018-01-16T00:32:30.920Z,7.31
2018-01-16T00:33:39.708Z,7.23
2018-01-16T00:34:48.506Z,7.23
2018-01-16T00:35:57.298Z,7.27
2018-01-16T00:37:06.353Z,7.15
2018-01-16T00:38:14.882Z,7.11
2018-01-16T00:39:23.409Z,7.13
2018-01-16T00:40:32.464Z,7.08
2018-01-16T00:41:40.992Z,7.12
2018-01-16T00:42:50.052Z,7.03
2018-01-16T00:43:58.844Z,7.03
2018-01-16T00:45:08.178Z,7
2018-01-16T00:46:16.705Z,7
2018-01-16T00:47:25.499Z,7.09
2018-01-16T00:48:34.559Z,7.15
2018-01-16T00:49:43.090Z,7.18
2018-01-16T00:50:51.880Z,7.21
2018-01-16T00:52:00.675Z,7.21
2018-01-16T00:53:09.471Z,7.21
2018-01-16T00:54:17.998Z,7.27
2018-01-16T00:55:26.528Z,7.31
2018-01-16T00:56:35.582Z,7.34
2018-01-16T00:57:44.107Z,7.23
2018-01-16T00:58:52.633Z,7.19
2018-01-16T01:00:01.693Z,7.19
2018-01-16T01:01:10.490Z,7.22
2018-01-16T01:02:19.019Z,7.23
2018-01-16T01:03:27.550Z,7.21
2018-01-16T01:04:36.078Z,7.03
2018-01-16T01:05:44.869Z,7.15
2018-01-16T01:06:53.450Z,7.01
2018-01-16T01:08:02.247Z,6.95
2018-01-16T01:09:10.767Z,7.01
2018-01-16T01:10:19.296Z,6.95
2018-01-16T01:11:28.354Z,6.98
2018-01-16T01:12:37.149Z,6.83
2018-01-16T01:13:46.211Z,6.95
2018-01-16T01:14:54.743Z,6.97
2018-01-16T01:16:04.070Z,6.95
2018-01-16T01:17:12.865Z,6.94
2018-01-16T01:18:21.389Z,7.04
2018-01-16T01:19:30.184Z,6.97
2018-01-16T01:20:38.712Z,6.94
2018-01-16T01:21:47.508Z,6.93
2018-01-16T01:22:56.302Z,7.01
2018-01-16T01:24:05.357Z,7.05
2018-01-16T01:25:13.883Z,7.03
2018-01-16T01:26:22.940Z,7.03
2018-01-16T01:27:31.466Z,7.04
2018-01-16T01:28:39.993Z,6.97
2018-01-16T01:29:48.520Z,7.01
2018-01-16T01:30:57.311Z,7.03
2018-01-16T01:32:05.840Z,7.04
2018-01-16T01:33:14.893Z,7.03
2018-01-16T01:34:23.689Z,7
2018-01-16T01:35:32.480Z,7.01
2018-01-16T01:36:41.014Z,7.09
2018-01-16T01:37:50.074Z,7.16
2018-01-16T01:38:58.601Z,7.12
2018-01-16T01:40:07.395Z,7.13
2018-01-16T01:41:16.187Z,7.04
2018-01-16T01:42:24.979Z,7
2018-01-16T01:43:33.771Z,7.13
2018-01-16T01:44:42.570Z,7.05
2018-01-16T01:45:51.099Z,7.08
2018-01-16T01:46:59.629Z,7.05
2018-01-16T01:48:08.687Z,7.09
2018-01-16T01:49:17.217Z,7.05
2018-01-16T01:50:25.745Z,7.15
2018-01-16T01:51:34.866Z,7.09
2018-01-16T01:52:43.394Z,7
2018-01-16T01:53:52.459Z,6.98
2018-01-16T01:55:01.525Z,7
2018-01-16T01:56:10.318Z,6.97
2018-01-16T01:57:19.908Z,6.91
2018-01-16T01:58:28.439Z,6.86
2018-01-16T01:59:37.238Z,6.86
2018-01-16T02:00:45.768Z,6.86
2018-01-16T02:01:54.824Z,6.82
2018-01-16T02:03:03.354Z,6.85
2018-01-16T02:04:12.415Z,6.82
2018-01-16T02:05:21.208Z,6.91
2018-01-16T02:06:30.261Z,6.86
2018-01-16T02:07:39.053Z,6.9
2018-01-16T02:08:47.586Z,6.86
2018-01-16T02:09:56.378Z,6.9
2018-01-16T02:11:05.437Z,6.91
2018-01-16T02:12:14.230Z,6.98
2018-01-16T02:13:23.021Z,6.98
2018-01-16T02:14:31.813Z,6.94
2018-01-16T02:15:40.611Z,7.01
2018-01-16T02:16:49.677Z,6.93
2018-01-16T02:17:58.733Z,7.01
2018-01-16T02:19:07.525Z,7
2018-01-16T02:20:16.054Z,7.08
2018-01-16T02:21:24.847Z,6.98
2018-01-16T02:22:33.901Z,7
2018-01-16T02:23:42.697Z,7.04
2018-01-16T02:24:51.235Z,7.13
2018-01-16T02:26:00.071Z,7.08
2018-01-16T02:27:08.600Z,7.12
2018-01-16T02:28:18.559Z,7.11
2018-01-16T02:29:28.133Z,7.04
2018-01-16T02:30:37.067Z,7.01
2018-01-16T02:31:45.903Z,7.03
2018-01-16T02:32:55.165Z,7.09
2018-01-16T02:34:04.068Z,7.04
2018-01-16T02:35:13.072Z,7.12
2018-01-16T02:36:22.763Z,7.16
2018-01-16T02:37:32.012Z,7.03
2018-01-16T02:38:40.745Z,7.03
2018-01-16T02:39:49.803Z,7.11
2018-01-16T02:40:58.603Z,7.12
2018-01-16T02:42:07.670Z,7.03
2018-01-16T02:43:17.002Z,7.01
2018-01-16T02:44:25.795Z,7.01
2018-01-16T02:45:34.318Z,7.12
2018-01-16T02:46:43.147Z,7.03
2018-01-16T02:47:51.945Z,7.11
2018-01-16T02:49:00.739Z,7.15
2018-01-16T02:50:09.531Z,7.12
2018-01-16T02:51:18.593Z,7.04
2018-01-16T02:52:27.120Z,6.98
2018-01-16T02:53:35.648Z,7.13
2018-01-16T02:54:44.442Z,7.05
2018-01-16T02:55:52.967Z,7.05
2018-01-16T02:57:01.493Z,7.05
2018-01-16T02:58:10.289Z,7.05
2018-01-16T02:59:19.354Z,7.01
2018-01-16T03:00:27.883Z,7.12
2018-01-16T03:01:36.413Z,7.11
2018-01-16T03:02:45.203Z,7.11
2018-01-16T03:03:53.994Z,7.12
2018-01-16T03:05:02.789Z,7.12
2018-01-16T03:06:11.582Z,7.16
2018-01-16T03:07:20.383Z,7.15
2018-01-16T03:08:29.438Z,7.19
2018-01-16T03:09:37.965Z,7.22
2018-01-16T03:10:46.492Z,7.19
2018-01-16T03:11:55.282Z,7.19
2018-01-16T03:13:03.808Z,7.22
2018-01-16T03:14:12.336Z,7.26
2018-01-16T03:15:21.128Z,7.19
2018-01-16T03:16:29.917Z,7.16
2018-01-16T03:17:38.711Z,7.26
2018-01-16T03:18:47.506Z,7.16
2018-01-16T03:19:56.035Z,7.21
2018-01-16T03:21:05.094Z,7.27
2018-01-16T03:22:13.622Z,7.21
2018-01-16T03:23:22.420Z,7.21
2018-01-16T03:24:31.478Z,7.23
2018-01-16T03:25:40.004Z,7.21
2018-01-16T03:26:48.805Z,7.27
2018-01-16T03:27:57.328Z,7.27
2018-01-16T03:29:06.699Z,7.16
2018-01-16T03:30:15.499Z,7.23
2018-01-16T03:31:24.032Z,7.27
2018-01-16T03:32:33.094Z,7.21
2018-01-16T03:33:41.884Z,7.22
2018-01-16T03:34:50.674Z,7.15
2018-01-16T03:35:59.465Z,7.16
2018-01-16T03:37:08.262Z,7.12
2018-01-16T03:38:16.788Z,7.19
2018-01-16T03:39:25.578Z,7.16
2018-01-16T03:40:34.114Z,7.12
2018-01-16T03:41:42.644Z,7.09
2018-01-16T03:42:51.442Z,7.12
2018-01-16T03:44:00.775Z,7.04
2018-01-16T03:45:09.569Z,7.05
2018-01-16T03:46:18.361Z,7.03
2018-01-16T03:47:26.890Z,7
2018-01-16T03:48:35.947Z,7.04
2018-01-16T03:49:44.763Z,7.05
2018-01-16T03:50:53.294Z,7
2018-01-16T03:52:02.351Z,7.01
2018-01-16T03:53:11.406Z,7.15
2018-01-16T03:54:20.197Z,7.05
2018-01-16T03:55:28.729Z,7.08
2018-01-16T03:56:38.320Z,7.03
2018-01-16T03:57:46.852Z,7
2018-01-16T03:58:55.908Z,7.04
2018-01-16T04:00:04.706Z,7.01
2018-01-16T04:01:13.502Z,6.91
2018-01-16T04:02:22.294Z,6.94
2018-01-16T04:03:30.820Z,6.88
2018-01-16T04:04:39.617Z,6.95
2018-01-16T04:05:48.407Z,6.88
2018-01-16T04:06:57.486Z,6.8
2018-01-16T04:08:06.014Z,6.79
2018-01-16T04:09:14.806Z,6.8
2018-01-16T04:10:23.600Z,6.78
2018-01-16T04:11:32.395Z,6.78
2018-01-16T04:12:41.188Z,6.86
2018-01-16T04:13:49.982Z,6.78
2018-01-16T04:14:58.780Z,6.76
2018-01-16T04:16:07.574Z,6.79
2018-01-16T04:17:16.629Z,6.9
2018-01-16T04:18:25.439Z,6.82
2018-01-16T04:19:34.489Z,6.78
2018-01-16T04:20:43.020Z,6.82
2018-01-16T04:21:51.817Z,6.82
2018-01-16T04:23:00.872Z,6.88
2018-01-16T04:24:09.933Z,6.83
2018-01-16T04:25:18.723Z,6.83
2018-01-16T04:26:27.250Z,6.8
2018-01-16T04:27:36.041Z,6.86
2018-01-16T04:28:44.566Z,6.76
2018-01-16T04:29:53.356Z,6.79
2018-01-16T04:31:01.884Z,6.8
2018-01-16T04:32:10.414Z,6.76
2018-01-16T04:33:19.471Z,6.79
2018-01-16T04:34:28.272Z,6.79
2018-01-16T04:35:36.798Z,6.72
2018-01-16T04:36:46.121Z,6.73
2018-01-16T04:37:55.183Z,6.78
2018-01-16T04:39:03.978Z,6.7
2018-01-16T04:40:12.507Z,6.76
2018-01-16T04:41:21.567Z,6.83
2018-01-16T04:42:30.098Z,6.82
2018-01-16T04:43:39.153Z,6.8
2018-01-16T04:44:47.940Z,6.75
2018-01-16T04:45:56.732Z,6.73
2018-01-16T04:47:05.258Z,6.75
2018-01-16T04:48:13.783Z,6.72
2018-01-16T04:49:22.312Z,6.7
2018-01-16T04:50:30.838Z,6.73
2018-01-16T04:51:39.365Z,6.65
2018-01-16T04:52:48.156Z,6.65
2018-01-16T04:53:57.218Z,6.75
2018-01-16T04:55:06.012Z,6.72
2018-01-16T04:56:15.065Z,6.78
2018-01-16T04:57:23.591Z,6.78
2018-01-16T04:58:32.647Z,6.68
2018-01-16T04:59:41.443Z,6.78
2018-01-16T05:00:49.970Z,6.73
2018-01-16T05:01:58.495Z,6.67
2018-01-16T05:03:07.023Z,6.79
2018-01-16T05:04:16.078Z,6.76
2018-01-16T05:05:24.608Z,6.73
2018-01-16T05:06:33.137Z,6.72
2018-01-16T05:07:41.668Z,6.79
2018-01-16T05:08:50.195Z,6.75
2018-01-16T05:09:58.723Z,6.72
2018-01-16T05:11:07.788Z,6.73
2018-01-16T05:12:16.850Z,6.7
2018-01-16T05:13:25.381Z,6.8
2018-01-16T05:14:34.172Z,6.76
2018-01-16T05:15:42.696Z,6.76
2018-01-16T05:16:51.488Z,6.72
2018-01-16T05:18:00.016Z,6.78
2018-01-16T05:19:09.355Z,6.79
2018-01-16T05:20:17.883Z,6.76
2018-01-16T05:21:26.673Z,6.72
2018-01-16T05:22:35.203Z,6.75
2018-01-16T05:23:43.998Z,6.82
2018-01-16T05:24:52.833Z,6.86
2018-01-16T05:26:01.624Z,6.82
2018-01-16T05:27:10.154Z,6.76
2018-01-16T05:28:18.680Z,6.79
2018-01-16T05:29:27.475Z,6.8
2018-01-16T05:30:36.270Z,6.86
2018-01-16T05:31:45.068Z,6.88
2018-01-16T05:32:53.597Z,6.93
2018-01-16T05:34:02.657Z,6.91
2018-01-16T05:35:11.449Z,6.88
2018-01-16T05:36:20.242Z,6.9
2018-01-16T05:37:28.772Z,6.82
2018-01-16T05:38:37.301Z,6.91
2018-01-16T05:39:46.355Z,6.94
2018-01-16T05:40:54.887Z,6.93
2018-01-16T05:42:03.455Z,6.9
2018-01-16T05:43:12.027Z,7.01
2018-01-16T05:44:20.822Z,6.9
2018-01-16T05:45:29.611Z,7.01
2018-01-16T05:46:38.135Z,6.95
2018-01-16T05:47:46.664Z,6.94
2018-01-16T05:48:55.459Z,7.01
2018-01-16T05:50:04.592Z,6.97
2018-01-16T05:51:13.665Z,6.91
2018-01-16T05:52:22.200Z,6.9
2018-01-16T05:53:31.035Z,6.91
2018-01-16T05:54:39.852Z,6.83
2018-01-16T05:55:48.389Z,6.82
2018-01-16T05:56:57.467Z,6.85
2018-01-16T05:58:06.558Z,6.86
2018-01-16T05:59:15.472Z,6.83
2018-01-16T06:00:24.044Z,6.85
2018-01-16T06:01:32.848Z,6.79
2018-01-16T06:02:41.916Z,6.8
2018-01-16T06:03:50.451Z,6.75
2018-01-16T06:04:59.348Z,6.83
2018-01-16T06:06:07.903Z,6.76
2018-01-16T06:07:16.695Z,6.79
2018-01-16T06:08:25.498Z,6.8
2018-01-16T06:09:34.333Z,6.78
2018-01-16T06:10:43.256Z,6.65
2018-01-16T06:11:52.088Z,6.72
2018-01-16T06:13:01.185Z,6.7
2018-01-16T06:14:09.989Z,6.76
2018-01-16T06:15:19.057Z,6.65
2018-01-16T06:16:27.630Z,6.72
2018-01-16T06:17:36.181Z,6.75
2018-01-16T06:18:45.049Z,6.75
2018-01-16T06:19:53.604Z,6.72
2018-01-16T06:21:02.427Z,6.75
2018-01-16T06:22:10.977Z,6.8
2018-01-16T06:23:19.800Z,6.73
2018-01-16T06:24:28.341Z,6.8
2018-01-16T06:25:37.415Z,6.75
2018-01-16T06:26:46.251Z,6.8
2018-01-16T06:27:55.121Z,6.8
2018-01-16T06:29:03.677Z,6.86
2018-01-16T06:30:12.734Z,6.73
2018-01-16T06:31:21.304Z,6.68
2018-01-16T06:32:30.158Z,6.61
2018-01-16T06:33:39.277Z,6.64
2018-01-16T06:34:47.861Z,6.61
2018-01-16T06:35:56.390Z,6.54
2018-01-16T06:37:05.745Z,6.29
2018-01-16T06:38:14.817Z,6.09
2018-01-16T06:39:24.211Z,6.18
2018-01-16T06:40:33.286Z,6.05
2018-01-16T06:41:42.441Z,6.02
2018-01-16T06:42:51.783Z,6.05
2018-01-16T06:44:00.386Z,6.03
2018-01-16T06:45:08.914Z,5.92
2018-01-16T06:46:17.473Z,5.92
2018-01-16T06:47:26.314Z,5.96
2018-01-16T06:48:34.865Z,5.85
2018-01-16T06:49:43.398Z,5.82
2018-01-16T06:50:52.210Z,5.82
2018-01-16T06:52:01.292Z,5.84
2018-01-16T06:53:09.855Z,5.8
2018-01-16T06:54:18.403Z,5.82
2018-01-16T06:55:27.478Z,5.88
2018-01-16T06:56:36.546Z,5.87
2018-01-16T06:57:45.350Z,5.88
2018-01-16T06:58:54.157Z,5.85
2018-01-16T07:00:04.834Z,5.78
2018-01-16T07:01:13.922Z,5.85
2018-01-16T07:02:22.730Z,5.82
2018-01-16T07:03:31.828Z,5.8
2018-01-16T07:04:40.660Z,5.82
2018-01-16T07:05:49.184Z,5.91
2018-01-16T07:06:57.976Z,5.88
2018-01-16T07:08:06.773Z,5.98
2018-01-16T07:09:16.094Z,5.92
2018-01-16T07:10:24.623Z,5.92
2018-01-16T07:11:33.435Z,5.96
2018-01-16T07:12:42.794Z,5.95
2018-01-16T07:13:51.588Z,5.95
2018-01-16T07:15:00.377Z,6.09
2018-01-16T07:16:08.907Z,6.05
2018-01-16T07:17:17.433Z,6.03
2018-01-16T07:18:25.960Z,6.05
2018-01-16T07:19:34.489Z,6.07
2018-01-16T07:20:43.541Z,5.96
2018-01-16T07:21:52.332Z,6
2018-01-16T07:23:01.124Z,6.02
2018-01-16T07:24:09.651Z,6.14
2018-01-16T07:25:18.712Z,6.09
2018-01-16T07:26:27.236Z,6.07
2018-01-16T07:27:35.764Z,6.18
2018-01-16T07:28:44.557Z,6.13
2018-01-16T07:29:53.612Z,6.09
2018-01-16T07:31:02.140Z,6.14
2018-01-16T07:32:10.937Z,6.13
2018-01-16T07:33:19.726Z,6.18
2018-01-16T07:34:28.783Z,6.14
2018-01-16T07:35:37.576Z,6.24
2018-01-16T07:36:46.369Z,6.13
2018-01-16T07:37:54.899Z,6.26
2018-01-16T07:39:03.691Z,6.28
2018-01-16T07:40:12.827Z,6.21
2018-01-16T07:41:21.355Z,6.28
2018-01-16T07:42:29.881Z,6.28
2018-01-16T07:43:38.407Z,6.28
2018-01-16T07:44:47.201Z,6.25
2018-01-16T07:45:56.530Z,6.28
2018-01-16T07:47:05.320Z,6.28
2018-01-16T07:48:13.845Z,6.24
2018-01-16T07:49:22.370Z,6.31
2018-01-16T07:50:31.424Z,6.24
2018-01-16T07:51:40.220Z,6.29
2018-01-16T07:52:48.746Z,6.33
2018-01-16T07:53:57.541Z,6.29
2018-01-16T07:55:06.066Z,6.26
2018-01-16T07:56:15.125Z,6.26
2018-01-16T07:57:23.912Z,6.24
2018-01-16T07:58:32.706Z,6.25
2018-01-16T07:59:41.239Z,6.33
2018-01-16T08:00:50.031Z,6.26
2018-01-16T08:01:58.557Z,6.28
2018-01-16T08:03:07.351Z,6.2
2018-01-16T08:04:15.880Z,6.31
2018-01-16T08:05:24.413Z,6.28
2018-01-16T08:06:33.215Z,6.34
2018-01-16T08:07:42.009Z,6.31
2018-01-16T08:08:50.803Z,6.36
2018-01-16T08:09:59.594Z,6.42
2018-01-16T08:11:08.651Z,6.36
2018-01-16T08:12:17.440Z,6.4
2018-01-16T08:13:25.967Z,6.4
2018-01-16T08:14:35.027Z,6.39
2018-01-16T08:15:43.821Z,6.51
2018-01-16T08:16:52.349Z,6.55
2018-01-16T08:18:01.142Z,6.61
2018-01-16T08:19:09.934Z,6.57
2018-01-16T08:20:18.725Z,6.58
2018-01-16T08:21:27.252Z,6.58
2018-01-16T08:22:36.053Z,6.6
2018-01-16T08:23:44.576Z,6.61
2018-01-16T08:24:53.366Z,6.72
2018-01-16T08:26:02.168Z,6.72
2018-01-16T08:27:10.722Z,6.73
2018-01-16T08:28:19.254Z,6.7
2018-01-16T08:29:27.826Z,6.72
2018-01-16T08:30:36.893Z,6.7
2018-01-16T08:31:45.445Z,6.8
2018-01-16T08:32:54.540Z,6.83
2018-01-16T08:34:03.099Z,6.9
2018-01-16T08:35:11.637Z,6.83
2018-01-16T08:36:20.285Z,6.91
2018-01-16T08:37:29.099Z,6.95
2018-01-16T08:38:37.761Z,7.01
2018-01-16T08:39:46.309Z,7.01
2018-01-16T08:40:55.111Z,7.04
2018-01-16T08:42:04.136Z,6.95
2018-01-16T08:43:12.998Z,7.16
2018-01-16T08:44:21.788Z,7.05
2018-01-16T08:45:30.583Z,7
2018-01-16T08:46:39.110Z,7.04
2018-01-16T08:47:47.635Z,7
2018-01-16T08:48:56.425Z,6.97
2018-01-16T08:50:05.217Z,7.03
2018-01-16T08:51:13.744Z,7.01
2018-01-16T08:52:22.854Z,7
2018-01-16T08:53:31.380Z,7.12
2018-01-16T08:54:39.913Z,7.11
2018-01-16T08:55:48.476Z,7.21
2018-01-16T08:56:57.008Z,7.16
2018-01-16T08:58:05.795Z,7.26
2018-01-16T08:59:14.329Z,7.29
2018-01-16T09:00:23.122Z,7.26
2018-01-16T09:01:31.650Z,7.23
2018-01-16T09:02:40.176Z,7.27
2018-01-16T09:03:49.228Z,7.36
2018-01-16T09:04:58.022Z,7.26
2018-01-16T09:06:06.553Z,7.26
2018-01-16T09:07:15.086Z,6.93
2018-01-16T09:08:23.881Z,6.49
2018-01-16T09:09:32.676Z,6.05
2018-01-16T09:10:41.468Z,5.84
2018-01-16T09:11:50.526Z,5.7
2018-01-16T09:12:59.321Z,5.67
2018-01-16T09:14:08.379Z,5.66
2018-01-16T09:15:16.910Z,5.62
2018-01-16T09:16:25.966Z,5.59
2018-01-16T09:17:34.494Z,5.49
2018-01-16T09:18:43.287Z,5.44
2018-01-16T09:19:52.076Z,5.28
2018-01-16T09:21:00.608Z,5.2
2018-01-16T09:22:09.932Z,5.05
2018-01-16T09:23:18.461Z,5.02
2018-01-16T09:24:27.669Z,4.9
2018-01-16T09:25:36.198Z,4.91
2018-01-16T09:26:44.726Z,4.88
2018-01-16T09:27:53.988Z,4.95
2018-01-16T09:29:02.782Z,4.97
2018-01-16T09:30:11.842Z,4.92
2018-01-16T09:31:20.635Z,4.91
2018-01-16T09:32:29.428Z,4.92
2018-01-16T09:33:38.122Z,4.9
2018-01-16T09:34:46.920Z,4.97
2018-01-16T09:35:55.979Z,4.9
2018-01-16T09:37:05.037Z,4.72
2018-01-16T09:38:13.823Z,4.72
2018-01-16T09:39:22.623Z,4.75
2018-01-16T09:40:31.145Z,4.75
2018-01-16T09:41:39.941Z,4.74
2018-01-16T09:42:48.785Z,4.75
2018-01-16T09:43:57.312Z,4.75
2018-01-16T09:45:06.115Z,4.69
2018-01-16T09:46:14.639Z,4.68
2018-01-16T09:47:23.700Z,4.66
2018-01-16T09:48:32.489Z,4.69
2018-01-16T09:49:41.016Z,4.76
2018-01-16T09:50:49.809Z,4.74
2018-01-16T09:51:59.335Z,4.74
2018-01-16T09:53:08.132Z,4.76
2018-01-16T09:54:16.919Z,4.74
2018-01-16T09:55:25.710Z,4.78
2018-01-16T09:56:34.777Z,4.79
2018-01-16T09:57:43.315Z,4.75
2018-01-16T09:58:52.119Z,4.83
2018-01-16T10:00:01.192Z,4.9
2018-01-16T10:01:10.076Z,4.91
2018-01-16T10:02:18.616Z,4.97
2018-01-16T10:03:27.152Z,4.92
2018-01-16T10:04:35.692Z,5.08
2018-01-16T10:05:44.239Z,5.06
2018-01-16T10:06:53.041Z,5.05
2018-01-16T10:08:01.576Z,5.03
2018-01-16T10:09:10.368Z,5.09
2018-01-16T10:10:19.428Z,5.09
2018-01-16T10:11:28.228Z,5.12
2018-01-16T10:12:37.284Z,5.2
2018-01-16T10:13:45.809Z,5.21
2018-01-16T10:14:54.729Z,5.21
2018-01-16T10:16:04.538Z,5.2
2018-01-16T10:17:13.448Z,5.08
2018-01-16T10:18:22.061Z,5.18
2018-01-16T10:19:31.197Z,5.03
2018-01-16T10:20:40.253Z,5.02
2018-01-16T10:21:48.779Z,4.98
2018-01-16T10:22:57.309Z,5.1
2018-01-16T10:24:06.106Z,5.06
2018-01-16T10:25:15.182Z,4.97
2018-01-16T10:26:23.717Z,4.94
2018-01-16T10:27:32.246Z,4.92
2018-01-16T10:28:41.038Z,4.9
2018-01-16T10:29:49.560Z,4.79
2018-01-16T10:30:58.359Z,4.87
2018-01-16T10:32:06.892Z,4.76
2018-01-16T10:33:16.214Z,4.79
2018-01-16T10:34:25.007Z,4.65
2018-01-16T10:35:34.329Z,4.72
2018-01-16T10:36:42.863Z,4.66
2018-01-16T10:37:51.659Z,4.69
2018-01-16T10:39:00.182Z,4.76
2018-01-16T10:40:08.988Z,4.71
2018-01-16T10:41:17.791Z,4.83
2018-01-16T10:42:26.854Z,4.79
2018-01-16T10:43:35.913Z,4.72
2018-01-16T10:44:44.971Z,4.88
2018-01-16T10:45:53.501Z,4.71
2018-01-16T10:47:02.296Z,4.83
2018-01-16T10:48:10.821Z,4.84
2018-01-16T10:49:19.614Z,4.84
2018-01-16T10:50:28.404Z,4.88
2018-01-16T10:51:37.200Z,4.85
2018-01-16T10:52:46.260Z,4.76
2018-01-16T10:53:54.792Z,4.87
2018-01-16T10:55:03.582Z,4.84
2018-01-16T10:56:12.119Z,4.84
2018-01-16T10:57:20.647Z,4.91
2018-01-16T10:58:29.176Z,4.97
2018-01-16T10:59:37.970Z,4.83
2018-01-16T11:00:46.760Z,4.78
2018-01-16T11:01:55.555Z,4.75
2018-01-16T11:03:04.361Z,4.74
2018-01-16T11:04:13.152Z,4.75
2018-01-16T11:05:22.475Z,4.76
2018-01-16T11:06:31.297Z,4.65
2018-01-16T11:07:40.091Z,4.71
2018-01-16T11:08:49.184Z,4.72
2018-01-16T11:09:57.976Z,4.68
2018-01-16T11:11:06.504Z,4.79
2018-01-16T11:12:15.561Z,4.76
2018-01-16T11:13:24.087Z,4.76
2018-01-16T11:14:32.879Z,4.74
2018-01-16T11:15:41.668Z,4.78
2018-01-16T11:16:50.721Z,4.78
2018-01-16T11:18:00.039Z,4.74
2018-01-16T11:19:08.832Z,4.75
2018-01-16T11:20:17.357Z,4.74
2018-01-16T11:21:25.885Z,4.75
2018-01-16T11:22:34.955Z,4.79
2018-01-16T11:23:44.012Z,4.75
2018-01-16T11:24:52.865Z,4.74
2018-01-16T11:26:01.612Z,4.83
2018-01-16T11:27:10.401Z,4.79
2018-01-16T11:28:19.213Z,4.88
2018-01-16T11:29:28.009Z,4.9
2018-01-16T11:30:36.536Z,5
2018-01-16T11:31:45.075Z,4.95
2018-01-16T11:32:53.640Z,5.1
2018-01-16T11:34:02.431Z,5.06
2018-01-16T11:35:10.968Z,5.1
2018-01-16T11:36:19.760Z,5.05
2018-01-16T11:37:29.083Z,5.21
2018-01-16T11:38:37.883Z,5.21
2018-01-16T11:39:46.413Z,5.16
2018-01-16T11:40:55.468Z,5.1
2018-01-16T11:42:04.254Z,5.23
2018-01-16T11:43:13.043Z,5.23
2018-01-16T11:44:22.977Z,5.21
2018-01-16T11:45:31.742Z,5.18
2018-01-16T11:46:40.272Z,5.23
2018-01-16T11:47:49.063Z,5.34
2018-01-16T11:48:58.124Z,5.34
2018-01-16T11:50:06.652Z,5.39
2018-01-16T11:51:15.448Z,5.36
2018-01-16T11:52:23.979Z,5.28
2018-01-16T11:53:32.769Z,5.34
2018-01-16T11:54:41.573Z,5.41
2018-01-16T11:55:50.365Z,5.41
2018-01-16T11:56:58.892Z,5.37
2018-01-16T11:58:07.688Z,5.42
2018-01-16T11:59:16.473Z,5.34
2018-01-16T12:00:24.999Z,5.34
2018-01-16T12:01:33.850Z,5.42
2018-01-16T12:02:42.336Z,5.42
2018-01-16T12:03:51.744Z,5.51
2018-01-16T12:05:01.065Z,5.54
2018-01-16T12:06:09.865Z,5.49
2018-01-16T12:07:18.388Z,5.57
2018-01-16T12:08:26.914Z,5.52
2018-01-16T12:09:35.443Z,5.6
2018-01-16T12:10:44.240Z,5.6
2018-01-16T12:11:52.770Z,5.57
2018-01-16T12:13:01.864Z,5.57
2018-01-16T12:14:10.922Z,5.64
2018-01-16T12:15:19.753Z,5.66
2018-01-16T12:16:28.287Z,5.67
2018-01-16T12:17:37.344Z,5.67
2018-01-16T12:18:46.133Z,5.69
2018-01-16T12:19:54.923Z,5.6
2018-01-16T12:21:03.981Z,5.7
2018-01-16T12:22:12.775Z,5.63
2018-01-16T12:23:21.307Z,5.67
2018-01-16T12:24:30.105Z,5.72
2018-01-16T12:25:38.946Z,5.75
2018-01-16T12:26:48.012Z,5.75
2018-01-16T12:27:57.335Z,5.85
2018-01-16T12:29:06.146Z,5.87
2018-01-16T12:30:14.934Z,5.82
2018-01-16T12:31:24.017Z,5.84
2018-01-16T12:32:32.544Z,5.8
2018-01-16T12:33:41.614Z,5.81
2018-01-16T12:34:50.416Z,5.87
2018-01-16T12:35:59.211Z,5.8
2018-01-16T12:37:07.746Z,5.84
2018-01-16T12:38:16.314Z,5.85
2018-01-16T12:39:25.641Z,5.84
2018-01-16T12:40:34.696Z,5.78
2018-01-16T12:41:43.751Z,5.81
2018-01-16T12:42:52.282Z,5.92
2018-01-16T12:44:01.387Z,5.99
2018-01-16T12:45:09.924Z,5.98
2018-01-16T12:46:18.520Z,6
2018-01-16T12:47:27.282Z,6.15
2018-01-16T12:48:36.344Z,6.1
2018-01-16T12:49:45.138Z,6.24
2018-01-16T12:50:53.936Z,6.43
2018-01-16T12:52:03.008Z,6.49
2018-01-16T12:53:11.812Z,6.6
2018-01-16T12:54:20.881Z,6.75
2018-01-16T12:55:29.694Z,6.72
2018-01-16T12:56:38.504Z,6.82
2018-01-16T12:57:47.307Z,6.78
2018-01-16T12:58:55.851Z,6.83
2018-01-16T13:00:04.935Z,6.75
2018-01-16T13:01:14.004Z,6.86
2018-01-16T13:02:22.544Z,6.93
2018-01-16T13:03:31.617Z,7
2018-01-16T13:04:40.155Z,7.09
2018-01-16T13:05:49.045Z,7
2018-01-16T13:06:57.853Z,7.04
2018-01-16T13:08:06.926Z,6.94
2018-01-16T13:09:15.467Z,6.93
2018-01-16T13:10:24.527Z,6.67
2018-01-16T13:11:33.318Z,6.54
2018-01-16T13:12:42.394Z,6.24
2018-01-16T13:13:51.198Z,6.06
2018-01-16T13:15:00.276Z,5.88
2018-01-16T13:16:08.817Z,5.82
2018-01-16T13:17:17.611Z,5.69
2018-01-16T13:18:26.400Z,5.54
2018-01-16T13:19:35.042Z,5.44
2018-01-16T13:20:43.836Z,5.37
2018-01-16T13:21:52.635Z,5.37
2018-01-16T13:23:01.163Z,5.24
2018-01-16T13:24:09.697Z,5.15
2018-01-16T13:25:18.493Z,5.15
2018-01-16T13:26:27.022Z,5.09
2018-01-16T13:27:36.079Z,5.06
2018-01-16T13:28:44.927Z,5.06
2018-01-16T13:29:53.796Z,5
2018-01-16T13:31:02.864Z,5.03
2018-01-16T13:32:11.402Z,4.95
2018-01-16T13:33:19.932Z,4.94
2018-01-16T13:34:28.462Z,4.88
2018-01-16T13:35:37.261Z,4.87
2018-01-16T13:36:45.795Z,4.9
2018-01-16T13:37:54.327Z,5
2018-01-16T13:39:03.650Z,5.02
2018-01-16T13:40:12.206Z,5.03
2018-01-16T13:41:21.726Z,5.13
2018-01-16T13:42:30.556Z,5.18
2018-01-16T13:43:39.081Z,5.23
2018-01-16T13:44:48.134Z,5.33
2018-01-16T13:45:56.660Z,5.33
2018-01-16T13:47:05.454Z,5.36
2018-01-16T13:48:13.984Z,5.33
2018-01-16T13:49:22.539Z,5.37
2018-01-16T13:50:31.598Z,5.41
2018-01-16T13:51:40.124Z,5.41
2018-01-16T13:52:49.471Z,5.34
2018-01-16T13:53:59.005Z,5.36
2018-01-16T13:55:08.067Z,5.33
2018-01-16T13:56:17.162Z,5.36
2018-01-16T13:57:25.692Z,5.39
2018-01-16T13:58:34.482Z,5.51
2018-01-16T13:59:43.551Z,5.6
2018-01-16T14:00:52.086Z,5.62
2018-01-16T14:02:00.871Z,5.6
2018-01-16T14:03:09.401Z,5.69
2018-01-16T14:04:50.263Z,5.72
2018-01-16T14:05:58.788Z,5.69
2018-01-16T14:07:07.585Z,5.72
2018-01-16T14:08:16.123Z,5.69
2018-01-16T14:09:24.657Z,5.66
2018-01-16T14:10:33.455Z,5.62
2018-01-16T14:11:41.983Z,5.59
2018-01-16T14:12:50.785Z,5.57
2018-01-16T14:13:59.326Z,5.6
2018-01-16T14:15:08.394Z,5.63
2018-01-16T14:16:16.970Z,5.62
2018-01-16T14:17:26.035Z,5.64
2018-01-16T14:18:34.566Z,5.67
2018-01-16T14:19:43.366Z,5.73
2018-01-16T14:20:52.740Z,5.67
2018-01-16T14:22:01.276Z,5.78
2018-01-16T14:23:10.647Z,5.78
2018-01-16T14:24:19.461Z,5.82
2018-01-16T14:25:28.271Z,5.91
2018-01-16T14:26:37.118Z,5.85
2018-01-16T14:27:45.656Z,5.98
2018-01-16T14:28:54.983Z,5.92
2018-01-16T14:30:03.813Z,6.03
2018-01-16T14:31:12.608Z,6.06
2018-01-16T14:32:21.400Z,6.07
2018-01-16T14:33:30.194Z,6.07
2018-01-16T14:34:38.722Z,6.05
2018-01-16T14:35:47.787Z,5.98
2018-01-16T14:36:56.315Z,5.99
2018-01-16T14:38:04.882Z,5.91
2018-01-16T14:39:13.409Z,5.84
2018-01-16T14:40:22.201Z,5.82
2018-01-16T14:41:30.740Z,5.85
2018-01-16T14:42:39.802Z,5.78
2018-01-16T14:43:48.861Z,5.84
2018-01-16T14:44:57.929Z,5.72
2018-01-16T14:46:06.991Z,5.72
2018-01-16T14:47:15.786Z,5.67
2018-01-16T14:48:24.313Z,5.62
2018-01-16T14:49:32.884Z,5.6
2018-01-16T14:50:41.467Z,5.51
2018-01-16T14:51:50.276Z,5.45
2018-01-16T14:52:59.623Z,5.51
2018-01-16T14:54:08.687Z,5.51
2018-01-16T14:55:17.217Z,5.45
2018-01-16T14:56:25.745Z,5.45
2018-01-16T14:57:34.271Z,5.41
2018-01-16T14:58:43.098Z,5.37
2018-01-16T14:59:52.166Z,5.36
2018-01-16T15:01:00.696Z,5.42
2018-01-16T15:02:09.515Z,5.31
2018-01-16T15:03:18.098Z,5.36
2018-01-16T15:04:26.890Z,5.39
2018-01-16T15:05:35.724Z,5.41
2018-01-16T15:06:45.371Z,5.31
2018-01-16T15:07:54.181Z,5.37
2018-01-16T15:09:02.710Z,5.34
2018-01-16T15:10:11.238Z,5.34
2018-01-16T15:11:20.029Z,5.34
2018-01-16T15:12:29.083Z,5.36
2018-01-16T15:13:37.612Z,5.24
2018-01-16T15:14:46.407Z,5.2
2018-01-16T15:15:55.464Z,5.2
2018-01-16T15:17:04.525Z,5.1
2018-01-16T15:18:13.317Z,5.21
2018-01-16T15:19:22.643Z,5.16
2018-01-16T15:20:31.699Z,5.26